Mojave, CA

5:27 PM PST on December 13, 2019 (GMT -0800)
Mojave

Weather History for KMHV - October, 2019

Change the Weather History Date:

Monday, October 21, 2019

  Actual Average Record
Temperature  
Mean Temperature 64 °F -  
Max Temperature 80 °F 75 °F 91 °F (2003)
Min Temperature 48 °F 48 °F 35 °F (2000)
Degree Days  
Heating Degree Days 1    
Growing Degree Days 14 (Base 50)    
Moisture  
Dew Point 32 °F    
Average Humidity 34    
Maximum Humidity 58    
Minimum Humidity 15    
Precipitation  
Precipitation 0.00 in - - ()
Sea Level Pressure  
Sea Level Pressure 30.16 in    
Wind  
Wind Speed 4 mph ()    
Max Wind Speed 13 mph    
Max Gust Speed 16 mph    
Visibility 9.7 miles    
Events      
Averages and records for this station are not official NWS values.
T = Trace of Precipitation, MM = Missing Value Source: Averaged Metar Reports

Daily Weather History Graph

Daily Weather History Graph

Search for Another Location

Airport or City:

Astronomy

Oct. 21, 2019 Rise Set
Actual Time 7:03 AM PDT 6:10 PM PDT
Civil Twilight 6:37 AM PDT 6:36 PM PDT
Nautical Twilight 6:08 AM PDT 7:05 PM PDT
Astronomical Twilight 5:38 AM PDT 7:34 PM PDT
Moon No Moon Rise 2:17 PM PDT (10/21)
Length of Visible Light 11h 58m
Length of Day
11h 06m
Waning Gibbous, 47% of the Moon is Illuminated
Oct 21
Waning Gibbous
Oct 27
New
Nov 4
First Quarter
Nov 12
Full
Nov 19
Last Quarter

Hourly Weather History & Observations

Time (PDT) Temp. Dew Point Humidity Pressure Visibility Wind Dir Wind Speed Gust Speed Precip Events Conditions
12:00 AM 55.4 °F 35.6 °F 47% 30.11 in 10.0 mi ESE 3.5 mph - N/A   Clear
12:20 AM 55.4 °F 33.8 °F 44% 30.11 in 10.0 mi Calm Calm - N/A   Clear
12:40 AM 53.6 °F 37.4 °F 54% 30.11 in 10.0 mi Calm Calm - N/A   Clear
1:00 AM 51.8 °F 37.4 °F 58% 30.11 in 10.0 mi North 3.5 mph - N/A   Clear
1:20 AM 51.8 °F 37.4 °F 58% 30.12 in 10.0 mi North 3.5 mph - N/A   Clear
1:40 AM 50.0 °F 35.6 °F 58% 30.12 in 10.0 mi North 3.5 mph - N/A   Clear
2:00 AM 50.0 °F 35.6 °F 58% 30.12 in 10.0 mi West 4.6 mph - N/A   Clear
2:20 AM 50.0 °F 35.6 °F 58% 30.11 in 10.0 mi NW 4.6 mph - N/A   Clear
2:40 AM 50.0 °F 33.8 °F 54% 30.11 in 10.0 mi NW 6.9 mph - N/A   Partly Cloudy
3:00 AM 50.0 °F 35.6 °F 58% 30.11 in 10.0 mi North 4.6 mph - N/A   Clear
3:20 AM 50.0 °F 35.6 °F 58% 30.11 in 10.0 mi West 3.5 mph - N/A   Clear
3:40 AM 50.0 °F 32.0 °F 50% 30.11 in 10.0 mi West 6.9 mph - N/A   Clear
4:00 AM 51.8 °F 32.0 °F 47% 30.10 in 10.0 mi WNW 5.8 mph - N/A   Partly Cloudy
4:20 AM 50.0 °F 32.0 °F 50% 30.10 in 10.0 mi NW 5.8 mph - N/A   Partly Cloudy
4:40 AM 51.8 °F 32.0 °F 47% 30.10 in 10.0 mi NW 10.4 mph - N/A   Partly Cloudy
5:00 AM 53.6 °F 32.0 °F 44% 30.10 in 10.0 mi NW 9.2 mph - N/A   Partly Cloudy
5:20 AM 53.6 °F 32.0 °F 44% 30.11 in 10.0 mi ESE 5.8 mph - N/A   Partly Cloudy
5:40 AM 50.0 °F 30.2 °F 47% 30.11 in 10.0 mi Calm Calm - N/A   Clear
6:00 AM 50.0 °F 30.2 °F 47% 30.12 in 10.0 mi Calm Calm - N/A   Clear
6:20 AM 50.0 °F 30.2 °F 47% 30.12 in 9.0 mi Calm Calm - N/A   Clear
6:40 AM 48.2 °F 30.2 °F 50% 30.13 in 2.0 mi Calm Calm - N/A   Haze
7:00 AM 50.0 °F 30.2 °F 47% 30.14 in 6.0 mi NE 4.6 mph - N/A   Haze
7:20 AM 50.0 °F 32.0 °F 50% 30.14 in 9.0 mi Calm Calm - N/A   Clear
7:40 AM 50.0 °F 30.2 °F 47% 30.15 in 4.0 mi WSW 5.8 mph - N/A   Haze
8:00 AM 53.6 °F 32.0 °F 44% 30.16 in 9.0 mi WSW 3.5 mph - N/A   Clear
8:20 AM 55.4 °F 32.0 °F 41% 30.18 in 10.0 mi Calm Calm - N/A   Clear
8:40 AM 57.2 °F 37.4 °F 48% 30.19 in 10.0 mi South 4.6 mph - N/A   Clear
9:00 AM 57.2 °F 37.4 °F 48% 30.20 in 10.0 mi Calm Calm - N/A   Clear
9:20 AM 59.0 °F 37.4 °F 45% 30.20 in 10.0 mi Calm Calm - N/A   Clear
9:40 AM 60.8 °F 37.4 °F 42% 30.20 in 10.0 mi Calm Calm - N/A   Clear
10:00 AM 62.6 °F 37.4 °F 39% 30.21 in 10.0 mi Calm Calm - N/A   Clear
10:20 AM 64.4 °F 35.6 °F 34% 30.21 in 10.0 mi Calm Calm - N/A   Clear
10:40 AM 66.2 °F 35.6 °F 32% 30.21 in 10.0 mi Calm Calm - N/A   Clear
11:00 AM 68.0 °F 35.6 °F 30% 30.21 in 10.0 mi Calm Calm - N/A   Clear
11:20 AM 69.8 °F 33.8 °F 27% 30.21 in 10.0 mi Variable 6.9 mph - N/A   Clear
11:40 AM 71.6 °F 32.0 °F 23% 30.21 in 10.0 mi ENE 9.2 mph - N/A   Clear
12:00 PM 73.4 °F 32.0 °F 22% 30.21 in 10.0 mi ENE 12.7 mph - N/A   Clear
12:20 PM 73.4 °F 30.2 °F 20% 30.20 in 10.0 mi NE 9.2 mph 16.1 mph N/A   Clear
12:40 PM 75.2 °F 30.2 °F 19% 30.19 in 10.0 mi ENE 8.1 mph 13.8 mph N/A   Clear
1:00 PM 75.2 °F 28.4 °F 18% 30.18 in 10.0 mi East 10.4 mph - N/A   Clear
1:20 PM 75.2 °F 28.4 °F 18% 30.18 in 10.0 mi East 5.8 mph 12.7 mph N/A   Clear
1:40 PM 77.0 °F 28.4 °F 17% 30.17 in 10.0 mi NE 6.9 mph - N/A   Clear
2:00 PM 77.0 °F 28.4 °F 17% 30.16 in 10.0 mi East 9.2 mph - N/A   Clear
2:20 PM 77.0 °F 28.4 °F 17% 30.16 in 10.0 mi East 10.4 mph - N/A   Clear
2:40 PM 77.0 °F 28.4 °F 17% 30.15 in 10.0 mi East 6.9 mph - N/A   Clear
3:00 PM 77.0 °F 28.4 °F 17% 30.15 in 10.0 mi East 8.1 mph - N/A   Clear
3:20 PM 78.8 °F 28.4 °F 16% 30.15 in 10.0 mi Calm Calm - N/A   Clear
3:40 PM 78.8 °F 28.4 °F 16% 30.15 in 10.0 mi Calm Calm - N/A   Clear
4:00 PM 78.8 °F 28.4 °F 16% 30.15 in 10.0 mi Variable 5.8 mph - N/A   Clear
4:20 PM 78.8 °F 28.4 °F 16% 30.15 in 10.0 mi Calm Calm - N/A   Clear
4:40 PM 78.8 °F 28.4 °F 16% 30.15 in 10.0 mi ESE 4.6 mph - N/A   Clear
5:00 PM 80.6 °F 28.4 °F 15% 30.15 in 10.0 mi Calm Calm - N/A   Clear
5:20 PM 78.8 °F 28.4 °F 16% 30.15 in 10.0 mi Calm Calm - N/A   Clear
5:40 PM 78.8 °F 28.4 °F 16% 30.15 in 10.0 mi Calm Calm - N/A   Clear
6:00 PM 77.0 °F 28.4 °F 17% 30.15 in 10.0 mi Calm Calm - N/A   Clear
6:20 PM 75.2 °F 28.4 °F 18% 30.16 in 10.0 mi Calm Calm - N/A   Clear
6:40 PM 75.2 °F 28.4 °F 18% 30.16 in 10.0 mi Calm Calm - N/A   Clear
7:00 PM 66.2 °F 24.8 °F 21% 30.17 in 10.0 mi NW 6.9 mph - N/A   Clear
7:20 PM 64.4 °F 26.6 °F 24% 30.18 in 10.0 mi NW 9.2 mph - N/A   Clear
7:40 PM 64.4 °F 30.2 °F 28% 30.19 in 9.0 mi NW 9.2 mph - N/A   Clear
8:00 PM 66.2 °F 33.8 °F 30% 30.19 in 10.0 mi NW 9.2 mph - N/A   Clear
8:20 PM 64.4 °F 33.8 °F 32% 30.20 in 10.0 mi NW 9.2 mph - N/A   Clear
8:40 PM 62.6 °F 30.2 °F 30% 30.20 in 10.0 mi NW 10.4 mph - N/A   Clear
9:00 PM 62.6 °F 30.2 °F 30% 30.20 in 10.0 mi NNW 10.4 mph - N/A   Clear
9:20 PM 62.6 °F 32.0 °F 32% 30.21 in 10.0 mi NNW 8.1 mph - N/A   Clear
9:40 PM 62.6 °F 32.0 °F 32% 30.22 in 10.0 mi NNW 8.1 mph - N/A   Clear
10:00 PM 62.6 °F 33.8 °F 34% 30.22 in 10.0 mi NNW 9.2 mph - N/A   Clear
10:20 PM 64.4 °F 32.0 °F 30% 30.23 in 10.0 mi North 11.5 mph - N/A   Clear
10:40 PM 64.4 °F 30.2 °F 28% 30.24 in 10.0 mi North 11.5 mph - N/A   Clear
11:00 PM 62.6 °F 30.2 °F 30% 30.24 in 10.0 mi North 10.4 mph - N/A   Clear
11:20 PM 60.8 °F 30.2 °F 31% 30.25 in 10.0 mi NNW 5.8 mph - N/A   Clear
11:40 PM 59.0 °F 30.2 °F 34% 30.25 in 10.0 mi NNW 9.2 mph - N/A   Clear